createdAt,value
2023-04-21T00:00:57.100Z,0.00
2023-04-21T00:01:57.011Z,0.00
2023-04-21T00:02:57.173Z,0.00
2023-04-21T00:03:57.252Z,0.00
2023-04-21T00:04:56.935Z,0.00
2023-04-21T00:05:57.031Z,0.00
2023-04-21T00:06:56.974Z,0.00
2023-04-21T00:07:56.726Z,0.00
2023-04-21T00:08:56.741Z,0.00
2023-04-21T00:09:56.661Z,0.00
2023-04-21T00:10:56.746Z,0.00
2023-04-21T00:11:56.557Z,0.00
2023-04-21T00:12:56.557Z,0.00
2023-04-21T00:13:56.441Z,0.00
2023-04-21T00:14:56.573Z,0.00
2023-04-21T00:15:56.460Z,0.00
2023-04-21T00:16:56.400Z,0.00
2023-04-21T00:17:56.284Z,0.00
2023-04-21T00:18:56.205Z,0.00
2023-04-21T00:19:56.157Z,0.00
2023-04-21T00:20:56.202Z,0.00
2023-04-21T00:21:56.066Z,0.00
2023-04-21T00:22:56.427Z,0.00
2023-04-21T00:23:56.000Z,0.00
2023-04-21T00:24:55.920Z,0.00
2023-04-21T00:25:55.860Z,0.00
2023-04-21T00:26:56.047Z,0.00
2023-04-21T00:27:55.772Z,0.00
2023-04-21T00:28:55.853Z,0.00
2023-04-21T00:29:55.687Z,0.00
2023-04-21T00:30:55.630Z,0.00
2023-04-21T00:31:55.794Z,0.00
2023-04-21T00:32:55.566Z,0.00
2023-04-21T00:33:55.718Z,0.00
2023-04-21T00:34:55.769Z,0.00
2023-04-21T00:35:55.389Z,0.00
2023-04-21T00:36:55.383Z,0.00
2023-04-21T00:37:55.600Z,0.00
2023-04-21T00:38:55.246Z,0.00
2023-04-21T00:39:55.332Z,0.00
2023-04-21T00:40:55.391Z,0.00
2023-04-21T00:41:55.102Z,0.00
2023-04-21T00:42:55.137Z,0.00
2023-04-21T00:43:55.011Z,0.00
2023-04-21T00:44:55.154Z,0.00
2023-04-21T00:45:54.903Z,0.00
2023-04-21T00:46:55.195Z,0.00
2023-04-21T00:47:54.918Z,0.00
2023-04-21T00:48:54.983Z,0.00
2023-04-21T00:49:54.723Z,0.00
2023-04-21T00:50:54.799Z,0.00
2023-04-21T00:51:54.653Z,0.00
2023-04-21T00:52:54.814Z,0.00
2023-04-21T00:53:54.524Z,0.00
2023-04-21T00:54:54.614Z,0.00
2023-04-21T00:55:54.675Z,0.00
2023-04-21T00:56:54.627Z,0.00
2023-04-21T00:57:54.344Z,0.00
2023-04-21T00:58:54.313Z,0.00
2023-04-21T00:59:54.268Z,0.00
2023-04-21T01:00:54.332Z,0.00
2023-04-21T01:01:54.201Z,0.00
2023-04-21T01:02:54.521Z,0.00
2023-04-21T01:03:54.232Z,0.00
2023-04-21T01:04:54.128Z,0.00
2023-04-21T01:05:54.088Z,0.00
2023-04-21T01:06:53.908Z,0.00
2023-04-21T01:07:54.095Z,0.00
2023-04-21T01:08:53.829Z,0.00
2023-04-21T01:09:53.906Z,0.00
2023-04-21T01:10:53.734Z,0.00
2023-04-21T01:11:53.922Z,0.00
2023-04-21T01:12:53.627Z,0.00
2023-04-21T01:13:53.742Z,0.00
2023-04-21T01:14:53.534Z,0.00
2023-04-21T01:15:53.481Z,0.00
2023-04-21T01:16:53.838Z,0.00
2023-04-21T01:17:53.655Z,0.00
2023-04-21T01:18:53.452Z,0.00
2023-04-21T01:19:53.365Z,0.00
2023-04-21T01:20:53.248Z,0.00
2023-04-21T01:21:53.192Z,0.00
2023-04-21T01:22:53.150Z,0.00
2023-04-21T01:23:53.263Z,0.00
2023-04-21T01:24:53.452Z,0.00
2023-04-21T01:25:53.243Z,0.00
2023-04-21T01:26:52.971Z,0.00
2023-04-21T01:27:52.915Z,0.00
2023-04-21T01:28:53.033Z,0.00
2023-04-21T01:29:52.822Z,0.00
2023-04-21T01:30:53.052Z,0.00
2023-04-21T01:31:52.769Z,0.00
2023-04-21T01:32:52.937Z,0.00
2023-04-21T01:33:52.640Z,0.00
2023-04-21T01:34:52.719Z,0.00
2023-04-21T01:35:52.536Z,0.00
2023-04-21T01:36:52.678Z,0.00
2023-04-21T01:37:52.440Z,0.00
2023-04-21T01:38:52.418Z,0.00
2023-04-21T01:39:52.496Z,0.00
2023-04-21T01:40:52.554Z,0.00
2023-04-21T01:41:52.508Z,0.00
2023-04-21T01:42:52.234Z,0.00
2023-04-21T01:43:52.332Z,0.00
2023-04-21T01:44:52.108Z,0.00
2023-04-21T01:45:53.176Z,0.00
2023-04-21T01:46:52.184Z,0.00
2023-04-21T01:47:52.156Z,0.00
2023-04-21T01:48:51.933Z,0.00
2023-04-21T01:49:52.012Z,0.00
2023-04-21T01:50:51.824Z,0.00
2023-04-21T01:51:51.969Z,0.00
2023-04-21T01:52:51.761Z,0.00
2023-04-21T01:53:51.779Z,0.00
2023-04-21T01:54:51.647Z,0.00
2023-04-21T01:55:51.594Z,0.00
2023-04-21T01:56:51.806Z,0.00
2023-04-21T01:57:51.656Z,0.00
2023-04-21T01:58:51.620Z,0.00
2023-04-21T01:59:51.408Z,0.00
2023-04-21T02:00:51.635Z,0.00
2023-04-21T02:01:51.365Z,0.00
2023-04-21T02:02:51.526Z,0.00
2023-04-21T02:03:51.655Z,0.00
2023-04-21T02:04:51.251Z,0.00
2023-04-21T02:05:51.128Z,0.00
2023-04-21T02:06:51.072Z,0.00
2023-04-21T02:07:51.056Z,0.00
2023-04-21T02:08:51.101Z,0.00
2023-04-21T02:09:50.933Z,0.00
2023-04-21T02:10:51.091Z,0.00
2023-04-21T02:11:50.840Z,0.00
2023-04-21T02:12:50.944Z,0.00
2023-04-21T02:13:50.906Z,0.00
2023-04-21T02:14:50.711Z,0.00
2023-04-21T02:15:59.556Z,0.00
2023-04-21T02:16:50.657Z,0.00
2023-04-21T02:17:50.799Z,0.00
2023-04-21T02:18:50.564Z,0.00
2023-04-21T02:19:50.551Z,0.00
2023-04-21T02:20:50.416Z,0.00
2023-04-21T02:21:50.551Z,0.00
2023-04-21T02:22:50.341Z,0.00
2023-04-21T02:23:50.407Z,0.00
2023-04-21T02:24:50.219Z,0.00
2023-04-21T02:25:50.373Z,0.00
2023-04-21T02:26:50.133Z,0.00
2023-04-21T02:27:50.179Z,0.00
2023-04-21T02:28:50.038Z,0.00
2023-04-21T02:29:49.987Z,0.00
2023-04-21T02:30:50.244Z,0.00
2023-04-21T02:32:00.813Z,0.00
2023-04-21T02:32:50.048Z,0.00
2023-04-21T02:33:50.229Z,0.00
2023-04-21T02:34:49.761Z,0.00
2023-04-21T02:35:50.859Z,0.00
2023-04-21T02:36:49.654Z,0.00
2023-04-21T02:37:49.852Z,0.00
2023-04-21T02:38:49.564Z,0.00
2023-04-21T02:39:49.654Z,0.00
2023-04-21T02:40:49.660Z,0.00
2023-04-21T02:41:49.730Z,0.00
2023-04-21T02:42:49.478Z,0.00
2023-04-21T02:43:49.334Z,0.00
2023-04-21T02:44:49.527Z,0.00
2023-04-21T02:45:49.241Z,0.00
2023-04-21T02:46:49.257Z,0.00
2023-04-21T02:47:49.208Z,0.00
2023-04-21T02:48:49.334Z,0.00
2023-04-21T02:49:49.044Z,0.00
2023-04-21T02:50:49.131Z,0.00
2023-04-21T02:51:49.198Z,0.00
2023-04-21T02:52:49.165Z,0.00
2023-04-21T02:53:48.858Z,0.00
2023-04-21T02:54:48.957Z,0.00
2023-04-21T02:55:48.795Z,0.00
2023-04-21T02:56:48.980Z,0.00
2023-04-21T02:57:48.774Z,0.00
2023-04-21T02:58:48.822Z,0.00
2023-04-21T02:59:48.781Z,0.00
2023-04-21T03:00:48.555Z,0.00
2023-04-21T03:01:48.587Z,0.00
2023-04-21T03:02:48.556Z,0.00
2023-04-21T03:03:48.461Z,0.00
2023-04-21T03:04:48.609Z,0.00
2023-04-21T03:05:48.298Z,0.00
2023-04-21T03:06:48.467Z,0.00
2023-04-21T03:07:48.277Z,0.00
2023-04-21T03:08:48.232Z,0.00
2023-04-21T03:09:48.100Z,0.00
2023-04-21T03:10:48.450Z,0.00
2023-04-21T03:11:48.007Z,0.00
2023-04-21T03:12:48.053Z,0.00
2023-04-21T03:13:47.912Z,0.00
2023-04-21T03:14:47.864Z,0.00
2023-04-21T03:15:48.077Z,0.00
2023-04-21T03:16:48.036Z,0.00
2023-04-21T03:17:47.968Z,0.00
2023-04-21T03:18:47.678Z,0.00
2023-04-21T03:19:47.985Z,0.00
2023-04-21T03:20:47.587Z,0.00
2023-04-21T03:21:47.713Z,0.00
2023-04-21T03:22:47.766Z,0.00
2023-04-21T03:23:47.794Z,0.00
2023-04-21T03:24:47.408Z,0.00
2023-04-21T03:25:47.356Z,0.00
2023-04-21T03:26:47.329Z,0.00
2023-04-21T03:27:47.354Z,0.00
2023-04-21T03:28:47.239Z,0.00
2023-04-21T03:29:47.369Z,0.00
2023-04-21T03:30:47.422Z,0.00
2023-04-21T03:31:47.128Z,0.00
2023-04-21T03:32:47.087Z,0.00
2023-04-21T03:33:47.187Z,0.00
2023-04-21T03:34:46.931Z,0.00
2023-04-21T03:35:47.202Z,0.00
2023-04-21T03:36:46.838Z,0.00
2023-04-21T03:37:46.804Z,0.00
2023-04-21T03:38:47.088Z,0.00
2023-04-21T03:39:46.707Z,0.00
2023-04-21T03:40:46.845Z,0.00
2023-04-21T03:41:46.634Z,0.00
2023-04-21T03:42:46.689Z,0.00
2023-04-21T03:43:46.512Z,0.00
2023-04-21T03:44:46.661Z,0.00
2023-04-21T03:45:46.454Z,0.00
2023-04-21T03:46:46.468Z,0.00
2023-04-21T03:47:46.378Z,0.00
2023-04-21T03:48:46.290Z,0.00
2023-04-21T03:49:46.297Z,0.00
2023-04-21T03:50:46.499Z,0.00
2023-04-21T03:51:46.136Z,0.00
2023-04-21T03:52:46.297Z,0.00
2023-04-21T03:53:46.044Z,0.00
2023-04-21T03:54:45.998Z,0.00
2023-04-21T03:55:45.968Z,0.00
2023-04-21T03:56:46.144Z,0.00
2023-04-21T03:57:45.998Z,0.00
2023-04-21T03:58:46.029Z,0.00
2023-04-21T03:59:45.775Z,0.00
2023-04-21T04:00:45.977Z,0.00
2023-04-21T04:01:45.676Z,0.00
2023-04-21T04:02:45.892Z,0.00
2023-04-21T04:03:45.693Z,4.00
2023-04-21T04:04:45.984Z,4.00
2023-04-21T04:05:45.899Z,4.00
2023-04-21T04:06:45.443Z,4.00
2023-04-21T04:07:45.607Z,4.00
2023-04-21T04:08:45.351Z,4.00
2023-04-21T04:09:45.609Z,4.00
2023-04-21T04:10:45.253Z,8.00
2023-04-21T04:11:45.209Z,8.00
2023-04-21T04:12:45.430Z,12.00
2023-04-21T04:13:45.122Z,12.00
2023-04-21T04:14:45.235Z,16.00
2023-04-21T04:15:45.123Z,16.00
2023-04-21T04:16:44.971Z,24.00
2023-04-21T04:17:45.155Z,28.00
2023-04-21T04:18:45.070Z,28.00
2023-04-21T04:19:44.830Z,36.00
2023-04-21T04:20:45.081Z,40.00
2023-04-21T04:21:44.798Z,44.00
2023-04-21T04:22:44.687Z,52.00
2023-04-21T04:23:44.680Z,60.00
2023-04-21T04:24:44.695Z,68.00
2023-04-21T04:25:44.590Z,76.00
2023-04-21T04:26:44.715Z,88.00
2023-04-21T04:27:44.466Z,92.00
2023-04-21T04:28:44.415Z,104.00
2023-04-21T04:29:44.734Z,108.00
2023-04-21T04:30:44.347Z,120.00
2023-04-21T04:31:44.605Z,128.00
2023-04-21T04:32:44.262Z,136.00
2023-04-21T04:33:44.234Z,144.00
2023-04-21T04:34:44.131Z,156.00
2023-04-21T04:35:44.366Z,172.00
2023-04-21T04:36:44.045Z,184.00
2023-04-21T04:37:44.175Z,200.00
2023-04-21T04:38:43.942Z,220.00
2023-04-21T04:39:43.977Z,236.00
2023-04-21T04:40:43.852Z,256.00
2023-04-21T04:41:43.997Z,276.00
2023-04-21T04:42:43.761Z,292.00
2023-04-21T04:43:43.817Z,300.00
2023-04-21T04:44:43.665Z,312.00
2023-04-21T04:45:43.885Z,320.00
2023-04-21T04:46:43.600Z,336.00
2023-04-21T04:47:43.677Z,348.00
2023-04-21T04:48:43.479Z,364.00
2023-04-21T04:49:43.648Z,388.00
2023-04-21T04:50:43.386Z,416.00
2023-04-21T04:51:43.376Z,448.00
2023-04-21T04:52:43.526Z,488.00
2023-04-21T04:53:43.248Z,532.00
2023-04-21T04:54:43.504Z,584.00
2023-04-21T04:55:43.184Z,612.00
2023-04-21T04:56:43.097Z,644.00
2023-04-21T04:57:43.378Z,672.00
2023-04-21T04:58:43.317Z,684.00
2023-04-21T04:59:43.021Z,712.00
2023-04-21T05:00:43.113Z,788.00
2023-04-21T05:01:42.921Z,908.00
2023-04-21T05:02:43.085Z,936.00
2023-04-21T05:03:43.263Z,968.00
2023-04-21T05:04:42.843Z,1028.00
2023-04-21T05:05:42.948Z,1088.00
2023-04-21T05:06:42.635Z,1116.00
2023-04-21T05:07:42.763Z,1188.00
2023-04-21T05:08:42.543Z,1244.00
2023-04-21T05:09:43.027Z,1200.00
2023-04-21T05:10:42.460Z,1144.00
2023-04-21T05:11:42.636Z,1156.00
2023-04-21T05:12:42.362Z,1152.00
2023-04-21T05:13:42.320Z,1148.00
2023-04-21T05:14:42.261Z,1192.00
2023-04-21T05:15:42.405Z,1228.00
2023-04-21T05:16:42.175Z,1260.00
2023-04-21T05:17:42.477Z,1292.00
2023-04-21T05:18:42.098Z,1356.00
2023-04-21T05:19:42.041Z,1360.00
2023-04-21T05:20:42.255Z,1396.00
2023-04-21T05:21:42.103Z,1440.00
2023-04-21T05:22:42.094Z,1492.00
2023-04-21T05:23:41.859Z,1544.00
2023-04-21T05:24:42.078Z,1684.00
2023-04-21T05:25:41.752Z,1708.00
2023-04-21T05:26:41.883Z,1680.00
2023-04-21T05:27:41.679Z,1776.00
2023-04-21T05:28:41.949Z,1668.00
2023-04-21T05:29:41.747Z,1696.00
2023-04-21T05:30:41.512Z,1648.00
2023-04-21T05:31:41.508Z,1568.00
2023-04-21T05:32:41.772Z,1624.00
2023-04-21T05:33:41.370Z,1556.00
2023-04-21T05:34:41.528Z,1588.00
2023-04-21T05:35:41.488Z,1760.00
2023-04-21T05:36:41.238Z,2464.00
2023-04-21T05:37:41.195Z,2808.00
2023-04-21T05:38:41.375Z,2280.00
2023-04-21T05:39:41.114Z,2368.00
2023-04-21T05:40:41.169Z,2804.00
2023-04-21T05:41:41.219Z,3120.00
2023-04-21T05:42:40.959Z,3096.00
2023-04-21T05:43:41.196Z,2920.00
2023-04-21T05:44:40.857Z,2804.00
2023-04-21T05:45:41.077Z,2832.00
2023-04-21T05:46:40.792Z,2904.00
2023-04-21T05:47:40.761Z,2904.00
2023-04-21T05:48:40.679Z,2984.00
2023-04-21T05:49:41.017Z,3116.00
2023-04-21T05:50:40.578Z,3092.00
2023-04-21T05:51:40.826Z,3280.00
2023-04-21T05:52:40.481Z,3556.00
2023-04-21T05:53:40.465Z,3992.00
2023-04-21T05:54:40.466Z,4180.00
2023-04-21T05:55:40.653Z,4012.00
2023-04-21T05:56:40.308Z,3920.00
2023-04-21T05:57:40.463Z,4008.00
2023-04-21T05:58:40.215Z,4216.00
2023-04-21T05:59:40.167Z,4212.00
2023-04-21T06:03:48.160Z,4600.00
2023-04-21T06:04:48.114Z,4840.00
2023-04-21T06:05:47.940Z,5252.00
2023-04-21T06:06:47.801Z,5908.00
2023-04-21T06:07:47.908Z,6540.00
2023-04-21T06:08:47.697Z,6900.00
2023-04-21T06:09:47.926Z,6868.00
2023-04-21T06:10:47.607Z,6840.00
2023-04-21T06:11:47.729Z,6892.00
2023-04-21T06:12:47.575Z,6752.00
2023-04-21T06:13:47.812Z,6888.00
2023-04-21T06:14:47.552Z,6900.00
2023-04-21T06:15:47.467Z,6592.00
2023-04-21T06:16:47.439Z,6580.00
2023-04-21T06:17:47.641Z,6456.00
2023-04-21T06:18:47.243Z,6524.00
2023-04-21T06:19:47.278Z,7080.00
2023-04-21T06:20:47.152Z,7264.00
2023-04-21T06:21:47.137Z,7388.00
2023-04-21T06:22:47.102Z,7884.00
2023-04-21T06:23:47.015Z,7632.00
2023-04-21T06:24:47.122Z,5136.00
2023-04-21T06:25:46.947Z,4312.00
2023-04-21T06:26:47.026Z,4484.00
2023-04-21T06:27:46.840Z,4936.00
2023-04-21T06:28:46.946Z,5268.00
2023-04-21T06:29:46.724Z,5708.00
2023-04-21T06:30:46.765Z,7592.00
2023-04-21T06:31:47.071Z,9076.00
2023-04-21T06:32:46.634Z,10228.00
2023-04-21T06:33:46.542Z,10148.00
2023-04-21T06:34:46.576Z,8764.00
2023-04-21T06:35:46.452Z,7916.00
2023-04-21T06:36:46.593Z,7704.00
2023-04-21T06:37:46.378Z,7072.00
2023-04-21T06:38:46.309Z,7620.00
2023-04-21T06:39:46.408Z,6820.00
2023-04-21T06:40:46.221Z,7224.00
2023-04-21T06:41:46.257Z,6240.00
2023-04-21T06:42:46.195Z,5384.00
2023-04-21T06:43:46.274Z,4916.00
2023-04-21T06:44:46.704Z,4788.00
2023-04-21T06:45:46.040Z,4716.00
2023-04-21T06:46:45.971Z,4580.00
2023-04-21T06:47:46.119Z,4800.00
2023-04-21T06:48:45.863Z,6044.00
2023-04-21T06:49:45.803Z,7480.00
2023-04-21T06:50:45.865Z,8048.00
2023-04-21T06:51:45.710Z,6688.00
2023-04-21T06:52:46.701Z,6564.00
2023-04-21T06:53:45.624Z,6504.00
2023-04-21T06:54:45.604Z,7116.00
2023-04-21T06:55:45.530Z,6492.00
2023-04-21T06:56:45.708Z,8992.00
2023-04-21T06:57:45.438Z,10172.00
2023-04-21T06:58:45.523Z,8936.00
2023-04-21T06:59:45.348Z,10064.00
2023-04-21T07:00:45.598Z,10472.00
2023-04-21T07:01:45.255Z,8968.00
2023-04-21T07:02:46.470Z,9496.00
2023-04-21T07:03:45.223Z,11664.00
2023-04-21T07:04:45.384Z,11436.00
2023-04-21T07:05:45.066Z,11404.00
2023-04-21T07:06:46.199Z,10476.00
2023-04-21T07:07:44.976Z,10360.00
2023-04-21T07:08:44.977Z,8336.00
2023-04-21T07:09:44.893Z,6724.00
2023-04-21T07:10:44.960Z,5840.00
2023-04-21T07:11:44.799Z,6056.00
2023-04-21T07:12:44.813Z,7324.00
2023-04-21T07:13:44.715Z,7588.00
2023-04-21T07:14:44.832Z,9828.00
2023-04-21T07:15:44.617Z,9732.00
2023-04-21T07:16:44.688Z,8956.00
2023-04-21T07:17:44.712Z,12796.00
2023-04-21T07:18:44.499Z,13068.00
2023-04-21T07:19:44.662Z,9680.00
2023-04-21T07:20:44.395Z,10548.00
2023-04-21T07:21:44.337Z,8860.00
2023-04-21T07:22:44.676Z,6496.00
2023-04-21T07:23:44.256Z,8880.00
2023-04-21T07:24:44.288Z,11148.00
2023-04-21T07:25:44.163Z,11308.00
2023-04-21T07:26:44.115Z,10944.00
2023-04-21T07:27:44.109Z,11448.00
2023-04-21T07:28:44.312Z,11560.00
2023-04-21T07:29:44.039Z,11440.00
2023-04-21T07:30:44.165Z,11360.00
2023-04-21T07:31:43.981Z,11704.00
2023-04-21T07:32:44.188Z,12512.00
2023-04-21T07:33:43.801Z,13600.00
2023-04-21T07:34:43.950Z,13912.00
2023-04-21T07:35:43.732Z,12848.00
2023-04-21T07:36:43.764Z,14036.00
2023-04-21T07:37:43.617Z,15216.00
2023-04-21T07:38:43.772Z,16088.00
2023-04-21T07:39:43.530Z,15828.00
2023-04-21T07:40:43.792Z,12672.00
2023-04-21T07:41:43.437Z,14716.00
2023-04-21T07:42:43.388Z,10608.00
2023-04-21T07:43:43.344Z,9824.00
2023-04-21T07:44:43.522Z,15360.00
2023-04-21T07:45:43.274Z,16460.00
2023-04-21T07:46:43.341Z,15452.00
2023-04-21T07:47:43.247Z,15828.00
2023-04-21T07:48:43.345Z,15444.00
2023-04-21T07:49:43.083Z,14784.00
2023-04-21T07:50:43.161Z,14516.00
2023-04-21T07:51:43.002Z,14916.00
2023-04-21T07:52:43.355Z,15376.00
2023-04-21T07:53:42.929Z,15444.00
2023-04-21T07:54:42.960Z,15464.00
2023-04-21T07:55:42.868Z,15752.00
2023-04-21T07:56:43.205Z,16560.00
2023-04-21T07:57:42.716Z,17760.00
2023-04-21T07:58:42.673Z,18112.00
2023-04-21T07:59:42.846Z,17728.00
2023-04-21T08:00:42.820Z,17152.00
2023-04-21T08:01:42.529Z,15352.00
2023-04-21T08:02:42.711Z,13780.00
2023-04-21T08:03:42.685Z,14508.00
2023-04-21T08:04:42.629Z,15520.00
2023-04-21T08:05:42.516Z,18944.00
2023-04-21T08:06:42.401Z,20416.00
2023-04-21T08:07:42.445Z,19776.00
2023-04-21T08:08:42.238Z,20096.00
2023-04-21T08:09:42.171Z,13316.00
2023-04-21T08:10:42.478Z,11836.00
2023-04-21T08:11:42.109Z,10544.00
2023-04-21T08:12:42.274Z,12656.00
2023-04-21T08:13:42.029Z,9764.00
2023-04-21T08:14:41.946Z,7340.00
2023-04-21T08:15:41.935Z,9268.00
2023-04-21T08:16:42.252Z,8120.00
2023-04-21T08:17:41.889Z,8688.00
2023-04-21T08:18:41.914Z,11604.00
2023-04-21T08:19:41.760Z,10400.00
2023-04-21T08:20:41.686Z,13336.00
2023-04-21T08:21:41.896Z,19360.00
2023-04-21T08:22:41.687Z,23520.00
2023-04-21T08:23:41.764Z,23360.00
2023-04-21T08:24:41.646Z,24352.00
2023-04-21T08:25:41.595Z,26656.00
2023-04-21T08:26:41.417Z,27456.00
2023-04-21T08:27:41.595Z,27936.00
2023-04-21T08:28:41.366Z,28224.00
2023-04-21T08:29:41.389Z,27232.00
2023-04-21T08:30:41.312Z,24320.00
2023-04-21T08:31:41.276Z,24256.00
2023-04-21T08:32:41.195Z,22496.00
2023-04-21T08:33:49.917Z,22112.00
2023-04-21T08:34:41.071Z,21056.00
2023-04-21T08:35:51.099Z,19712.00
2023-04-21T08:36:41.094Z,19328.00
2023-04-21T08:37:41.020Z,20768.00
2023-04-21T08:38:41.052Z,21376.00
2023-04-21T08:39:40.882Z,22400.00
2023-04-21T08:40:41.061Z,21824.00
2023-04-21T08:41:40.751Z,18464.00
2023-04-21T08:42:40.708Z,21216.00
2023-04-21T08:43:40.672Z,21856.00
2023-04-21T08:44:40.872Z,21696.00
2023-04-21T08:45:40.792Z,21248.00
2023-04-21T08:46:40.689Z,21216.00
2023-04-21T08:47:40.541Z,22304.00
2023-04-21T08:48:40.447Z,23520.00
2023-04-21T08:49:40.515Z,23808.00
2023-04-21T08:50:40.361Z,23744.00
2023-04-21T08:51:40.527Z,23840.00
2023-04-21T08:52:40.272Z,24160.00
2023-04-21T08:53:41.416Z,24576.00
2023-04-21T08:54:40.228Z,24480.00
2023-04-21T08:55:40.342Z,24512.00
2023-04-21T08:56:40.098Z,25312.00
2023-04-21T08:57:40.151Z,25440.00
2023-04-21T08:58:40.222Z,24160.00
2023-04-21T08:59:39.965Z,23456.00
2023-04-21T09:00:39.925Z,23136.00
2023-04-21T09:01:40.027Z,23328.00
2023-04-21T09:02:40.021Z,23168.00
2023-04-21T09:03:40.191Z,22752.00
2023-04-21T09:04:40.146Z,24224.00
2023-04-21T09:05:42.824Z,26048.00
2023-04-21T09:06:39.839Z,28096.00
2023-04-21T09:07:39.865Z,29664.00
2023-04-21T09:08:39.827Z,30656.00
2023-04-21T09:09:39.538Z,30848.00
2023-04-21T09:10:39.511Z,30432.00
2023-04-21T09:11:39.465Z,29824.00
2023-04-21T09:12:39.645Z,30208.00
2023-04-21T09:13:39.358Z,31168.00
2023-04-21T09:14:39.467Z,31200.00
2023-04-21T09:15:39.404Z,31008.00
2023-04-21T09:16:39.606Z,30624.00
2023-04-21T09:17:40.779Z,29312.00
2023-04-21T09:18:39.147Z,27520.00
2023-04-21T09:19:39.294Z,24416.00
2023-04-21T09:20:39.062Z,25760.00
2023-04-21T09:21:39.116Z,25632.00
2023-04-21T09:22:38.986Z,25920.00
2023-04-21T09:23:39.132Z,25856.00
2023-04-21T09:24:38.997Z,25088.00
2023-04-21T09:25:38.930Z,24192.00
2023-04-21T09:26:38.808Z,23648.00
2023-04-21T09:27:38.776Z,23360.00
2023-04-21T09:28:38.728Z,23296.00
2023-04-21T09:29:38.968Z,23648.00
2023-04-21T09:30:38.707Z,24160.00
2023-04-21T09:31:38.843Z,24384.00
2023-04-21T09:32:38.643Z,24224.00
2023-04-21T09:33:45.944Z,24352.00
2023-04-21T09:34:38.632Z,25184.00
2023-04-21T09:35:38.590Z,25760.00
2023-04-21T09:36:38.384Z,25696.00
2023-04-21T09:37:38.618Z,25152.00
2023-04-21T09:38:38.303Z,24960.00
2023-04-21T09:39:52.768Z,25024.00
2023-04-21T09:40:38.210Z,24640.00
2023-04-21T09:41:38.436Z,24128.00
2023-04-21T09:42:40.137Z,24832.00
2023-04-21T09:43:38.253Z,26432.00
2023-04-21T09:44:49.506Z,27840.00
2023-04-21T09:45:40.682Z,28832.00
2023-04-21T09:46:38.159Z,29280.00
2023-04-21T09:47:37.932Z,29440.00
2023-04-21T09:48:38.079Z,29472.00
2023-04-21T09:49:37.831Z,29728.00
2023-04-21T09:52:05.772Z,32672.00
2023-04-21T09:52:37.710Z,33632.00
2023-04-21T09:53:37.911Z,32864.00
2023-04-21T09:54:37.619Z,30592.00
2023-04-21T09:55:37.583Z,29184.00
2023-04-21T09:56:38.951Z,29280.00
2023-04-21T09:57:37.514Z,30528.00
2023-04-21T09:58:37.735Z,32352.00
2023-04-21T09:59:37.454Z,32896.00
2023-04-21T10:00:37.548Z,31936.00
2023-04-21T10:01:37.363Z,31680.00
2023-04-21T10:02:37.672Z,33504.00
2023-04-21T10:03:37.362Z,37056.00
2023-04-21T10:04:37.915Z,42944.00
2023-04-21T10:05:39.379Z,50816.00
2023-04-21T10:06:37.120Z,49856.00
2023-04-21T10:07:37.086Z,44512.00
2023-04-21T10:08:37.398Z,40544.00
2023-04-21T10:09:36.998Z,38336.00
2023-04-21T10:10:37.223Z,38944.00
2023-04-21T10:11:36.919Z,40384.00
2023-04-21T10:12:36.892Z,39520.00
2023-04-21T10:13:36.834Z,37216.00
2023-04-21T10:14:37.069Z,37920.00
2023-04-21T10:15:36.756Z,41472.00
2023-04-21T10:16:37.034Z,43168.00
2023-04-21T10:17:36.733Z,42048.00
2023-04-21T10:18:37.068Z,40864.00
2023-04-21T10:19:36.647Z,43136.00
2023-04-21T10:20:37.691Z,46368.00
2023-04-21T10:21:36.505Z,51040.00
2023-04-21T10:22:36.689Z,51360.00
2023-04-21T10:23:36.702Z,48352.00
2023-04-21T10:24:36.561Z,39008.00
2023-04-21T10:25:36.506Z,45248.00
2023-04-21T10:26:36.371Z,50816.00
2023-04-21T10:27:36.586Z,44768.00
2023-04-21T10:28:36.233Z,28928.00
2023-04-21T10:30:36.333Z,29344.00
2023-04-21T10:31:36.205Z,30880.00
2023-04-21T10:32:36.182Z,29760.00
2023-04-21T10:33:36.022Z,28096.00
2023-04-21T10:34:35.990Z,28480.00
2023-04-21T10:35:35.945Z,29536.00
2023-04-21T10:36:36.173Z,29600.00
2023-04-21T10:37:35.867Z,28032.00
2023-04-21T10:38:35.983Z,27360.00
2023-04-21T10:39:35.793Z,28160.00
2023-04-21T10:40:43.942Z,30272.00
2023-04-21T10:41:35.705Z,30912.00
2023-04-21T10:42:35.810Z,31040.00
2023-04-21T10:43:35.619Z,33600.00
2023-04-21T10:44:35.823Z,36192.00
2023-04-21T10:45:35.540Z,36160.00
2023-04-21T10:46:35.594Z,37792.00
2023-04-21T10:47:35.692Z,34560.00
2023-04-21T10:48:35.698Z,34496.00
2023-04-21T10:49:35.654Z,33376.00
2023-04-21T10:50:36.934Z,35776.00
2023-04-21T10:51:35.295Z,37280.00
2023-04-21T10:52:35.295Z,41600.00
2023-04-21T10:53:35.477Z,42176.00
2023-04-21T10:54:35.171Z,36928.00
2023-04-21T10:55:35.299Z,36192.00
2023-04-21T10:56:35.916Z,36480.00
2023-04-21T10:57:35.087Z,36640.00
2023-04-21T10:58:35.036Z,36608.00
2023-04-21T10:59:35.114Z,36448.00
2023-04-21T11:00:34.926Z,36992.00
2023-04-21T11:01:35.383Z,37760.00
2023-04-21T11:02:37.379Z,41440.00
2023-04-21T11:03:35.109Z,39552.00
2023-04-21T11:04:35.024Z,37984.00
2023-04-21T11:05:34.969Z,40416.00
2023-04-21T11:06:34.684Z,35840.00
2023-04-21T11:07:34.772Z,31264.00
2023-04-21T11:08:35.436Z,31456.00
2023-04-21T11:09:34.771Z,31584.00
2023-04-21T11:10:34.521Z,31616.00
2023-04-21T11:11:34.583Z,26880.00
2023-04-21T11:12:34.641Z,25536.00
2023-04-21T11:13:34.595Z,25504.00
2023-04-21T11:14:36.458Z,26528.00
2023-04-21T11:15:34.409Z,27392.00
2023-04-21T11:16:34.296Z,26688.00
2023-04-21T11:17:34.447Z,25984.00
2023-04-21T11:18:34.226Z,25952.00
2023-04-21T11:19:34.157Z,26720.00
2023-04-21T11:20:34.111Z,27648.00
2023-04-21T11:21:34.251Z,28608.00
2023-04-21T11:22:34.031Z,29984.00
2023-04-21T11:23:34.156Z,31936.00
2023-04-21T11:24:34.236Z,34400.00
2023-04-21T11:25:33.896Z,37376.00
2023-04-21T11:26:33.872Z,39168.00
2023-04-21T11:27:33.991Z,40352.00
2023-04-21T11:28:33.777Z,40768.00
2023-04-21T11:29:33.999Z,41856.00
2023-04-21T11:30:33.725Z,42656.00
2023-04-21T11:31:33.843Z,39616.00
2023-04-21T11:32:34.007Z,37632.00
2023-04-21T11:33:33.871Z,37088.00
2023-04-21T11:34:33.524Z,37312.00
2023-04-21T11:35:33.635Z,38432.00
2023-04-21T11:36:33.472Z,39008.00
2023-04-21T11:37:33.659Z,40128.00
2023-04-21T11:38:33.363Z,42400.00
2023-04-21T11:39:34.493Z,40224.00
2023-04-21T11:40:33.281Z,39168.00
2023-04-21T11:41:33.248Z,38912.00
2023-04-21T11:42:33.537Z,38848.00
2023-04-21T11:43:33.283Z,38560.00
2023-04-21T11:44:33.114Z,39712.00
2023-04-21T11:45:34.898Z,43680.00
2023-04-21T11:46:33.077Z,43008.00
2023-04-21T11:47:33.029Z,38592.00
2023-04-21T11:48:33.120Z,36544.00
2023-04-21T11:49:32.918Z,34432.00
2023-04-21T11:50:33.154Z,34624.00
2023-04-21T11:51:32.881Z,35424.00
2023-04-21T11:52:33.077Z,35008.00
2023-04-21T11:53:32.753Z,36032.00
2023-04-21T11:54:33.181Z,41440.00
2023-04-21T11:55:32.695Z,40192.00
2023-04-21T11:56:32.780Z,38304.00
2023-04-21T11:57:32.667Z,40288.00
2023-04-21T11:58:32.561Z,40000.00
2023-04-21T11:59:32.550Z,37856.00
2023-04-21T12:00:32.515Z,31488.00
2023-04-21T12:01:32.609Z,27872.00
2023-04-21T12:02:32.597Z,25312.00
2023-04-21T12:03:32.708Z,23616.00
2023-04-21T12:04:34.444Z,22720.00
2023-04-21T12:05:32.290Z,20864.00
2023-04-21T12:06:32.639Z,19200.00
2023-04-21T12:07:32.172Z,17696.00
2023-04-21T12:08:32.248Z,15876.00
2023-04-21T12:09:32.089Z,14344.00
2023-04-21T12:10:32.045Z,12936.00
2023-04-21T12:11:32.263Z,11748.00
2023-04-21T12:12:33.006Z,10836.00
2023-04-21T12:13:32.072Z,10248.00
2023-04-21T12:14:31.875Z,10332.00
2023-04-21T12:15:31.853Z,11760.00
2023-04-21T12:16:31.816Z,14860.00
2023-04-21T12:17:31.913Z,19360.00
2023-04-21T12:18:31.963Z,25888.00
2023-04-21T12:19:31.906Z,29248.00
2023-04-21T12:20:31.979Z,31328.00
2023-04-21T12:21:31.577Z,32000.00
2023-04-21T12:22:31.533Z,31232.00
2023-04-21T12:23:32.768Z,28864.00
2023-04-21T12:24:31.468Z,25472.00
2023-04-21T12:25:31.750Z,22080.00
2023-04-21T12:26:31.368Z,20736.00